sensor_id;sensor_type;location;lat;lon;timestamp;pressure;altitude;pressure_sealevel;temperature;humidity
46710;BME280;32442;51.514;-0.178;2023-02-10T00:00:07;103424.91;;;21.86;35.07
46710;BME280;32442;51.514;-0.178;2023-02-10T00:02:34;103419.88;;;21.88;35.50
46710;BME280;32442;51.514;-0.178;2023-02-10T00:05:01;103419.63;;;21.89;35.06
46710;BME280;32442;51.514;-0.178;2023-02-10T00:07:28;103423.88;;;21.92;35.41
46710;BME280;32442;51.514;-0.178;2023-02-10T00:09:55;103412.41;;;21.93;35.28
46710;BME280;32442;51.514;-0.178;2023-02-10T00:12:22;103401.72;;;21.95;35.21
46710;BME280;32442;51.514;-0.178;2023-02-10T00:14:49;103410.16;;;21.95;35.39
46710;BME280;32442;51.514;-0.178;2023-02-10T00:17:16;103406.00;;;21.98;35.38
46710;BME280;32442;51.514;-0.178;2023-02-10T00:19:43;103406.00;;;21.98;35.76
46710;BME280;32442;51.514;-0.178;2023-02-10T00:22:10;103404.88;;;21.99;35.59
46710;BME280;32442;51.514;-0.178;2023-02-10T00:24:37;103405.66;;;21.94;35.24
46710;BME280;32442;51.514;-0.178;2023-02-10T00:27:04;103398.41;;;21.98;35.74
46710;BME280;32442;51.514;-0.178;2023-02-10T00:29:31;103404.88;;;21.99;35.29
46710;BME280;32442;51.514;-0.178;2023-02-10T00:31:58;103407.69;;;21.99;35.44
46710;BME280;32442;51.514;-0.178;2023-02-10T00:34:25;103407.09;;;21.97;35.64
46710;BME280;32442;51.514;-0.178;2023-02-10T00:36:54;103395.00;;;21.96;35.65
46710;BME280;32442;51.514;-0.178;2023-02-10T00:39:21;103393.03;;;21.97;35.33
46710;BME280;32442;51.514;-0.178;2023-02-10T00:41:48;103393.28;;;21.95;35.27
46710;BME280;32442;51.514;-0.178;2023-02-10T00:44:15;103390.75;;;21.94;35.51
46710;BME280;32442;51.514;-0.178;2023-02-10T00:46:42;103381.06;;;21.90;35.49
46710;BME280;32442;51.514;-0.178;2023-02-10T00:49:09;103392.31;;;21.90;35.76
46710;BME280;32442;51.514;-0.178;2023-02-10T00:51:37;103387.22;;;21.87;35.59
46710;BME280;32442;51.514;-0.178;2023-02-10T00:54:04;103386.03;;;21.83;35.40
46710;BME280;32442;51.514;-0.178;2023-02-10T00:56:31;103395.84;;;21.80;35.47
46710;BME280;32442;51.514;-0.178;2023-02-10T00:58:57;103395.47;;;21.77;35.59
46710;BME280;32442;51.514;-0.178;2023-02-10T01:01:24;103405.88;;;21.76;35.80
46710;BME280;32442;51.514;-0.178;2023-02-10T01:03:51;103406.66;;;21.71;35.89
46710;BME280;32442;51.514;-0.178;2023-02-10T01:06:18;103404.13;;;21.70;36.08
46710;BME280;32442;51.514;-0.178;2023-02-10T01:08:45;103403.78;;;21.66;35.76
46710;BME280;32442;51.514;-0.178;2023-02-10T01:11:12;103396.13;;;21.62;36.11
46710;BME280;32442;51.514;-0.178;2023-02-10T01:13:40;103401.47;;;21.63;36.31
46710;BME280;32442;51.514;-0.178;2023-02-10T01:16:08;103390.72;;;21.60;36.41
46710;BME280;32442;51.514;-0.178;2023-02-10T01:18:37;103394.91;;;21.58;36.49
46710;BME280;32442;51.514;-0.178;2023-02-10T01:21:07;103395.19;;;21.56;36.38
46710;BME280;32442;51.514;-0.178;2023-02-10T01:23:34;103394.47;;;21.49;36.80
46710;BME280;32442;51.514;-0.178;2023-02-10T01:26:00;103400.63;;;21.46;36.66
46710;BME280;32442;51.514;-0.178;2023-02-10T01:28:27;103398.91;;;21.45;36.46
46710;BME280;32442;51.514;-0.178;2023-02-10T01:30:55;103404.53;;;21.45;36.68
46710;BME280;32442;51.514;-0.178;2023-02-10T01:33:22;103404.97;;;21.37;36.76
46710;BME280;32442;51.514;-0.178;2023-02-10T01:35:49;103409.41;;;21.33;36.54
46710;BME280;32442;51.514;-0.178;2023-02-10T01:38:16;103398.66;;;21.30;36.54
46710;BME280;32442;51.514;-0.178;2023-02-10T01:40:43;103397.44;;;21.26;36.78
46710;BME280;32442;51.514;-0.178;2023-02-10T01:43:13;103390.13;;;21.25;36.77
46710;BME280;32442;51.514;-0.178;2023-02-10T01:45:41;103382.19;;;21.22;36.74
46710;BME280;32442;51.514;-0.178;2023-02-10T01:48:08;103389.19;;;21.19;36.57
46710;BME280;32442;51.514;-0.178;2023-02-10T01:53:05;103393.00;;;21.13;36.76
46710;BME280;32442;51.514;-0.178;2023-02-10T01:55:33;103387.38;;;21.13;36.65
46710;BME280;32442;51.514;-0.178;2023-02-10T01:58:01;103396.53;;;21.09;36.68
46710;BME280;32442;51.514;-0.178;2023-02-10T02:00:29;103397.91;;;21.06;37.13
46710;BME280;32442;51.514;-0.178;2023-02-10T02:02:56;103396.44;;;21.04;37.08
46710;BME280;32442;51.514;-0.178;2023-02-10T02:07:54;103397.56;;;21.03;36.91
46710;BME280;32442;51.514;-0.178;2023-02-10T02:10:23;103397.72;;;20.96;36.80
46710;BME280;32442;51.514;-0.178;2023-02-10T02:12:55;103398.81;;;20.95;36.86
46710;BME280;32442;51.514;-0.178;2023-02-10T02:18:02;103403.84;;;20.93;36.90
46710;BME280;32442;51.514;-0.178;2023-02-10T02:20:38;103395.66;;;20.92;36.76
46710;BME280;32442;51.514;-0.178;2023-02-10T02:30:45;103410.34;;;20.82;36.89
46710;BME280;32442;51.514;-0.178;2023-02-10T02:35:47;103410.00;;;20.78;36.73
46710;BME280;32442;51.514;-0.178;2023-02-10T02:38:16;103404.91;;;20.75;37.00
46710;BME280;32442;51.514;-0.178;2023-02-10T02:40:43;103415.50;;;20.73;37.42
46710;BME280;32442;51.514;-0.178;2023-02-10T02:43:10;103413.81;;;20.72;37.45
46710;BME280;32442;51.514;-0.178;2023-02-10T02:55:38;103403.13;;;20.58;37.47
46710;BME280;32442;51.514;-0.178;2023-02-10T02:58:11;103401.16;;;20.58;37.38
46710;BME280;32442;51.514;-0.178;2023-02-10T03:00:39;103411.19;;;20.54;37.90
46710;BME280;32442;51.514;-0.178;2023-02-10T03:03:08;103411.44;;;20.53;37.93
46710;BME280;32442;51.514;-0.178;2023-02-10T03:05:35;103404.63;;;20.49;37.94
46710;BME280;32442;51.514;-0.178;2023-02-10T03:08:02;103405.44;;;20.49;37.78
46710;BME280;32442;51.514;-0.178;2023-02-10T03:10:29;103395.34;;;20.48;37.87
46710;BME280;32442;51.514;-0.178;2023-02-10T03:12:57;103392.78;;;20.47;37.74
46710;BME280;32442;51.514;-0.178;2023-02-10T03:15:24;103391.81;;;20.41;37.61
46710;BME280;32442;51.514;-0.178;2023-02-10T03:17:51;103395.97;;;20.38;37.95
46710;BME280;32442;51.514;-0.178;2023-02-10T03:20:18;103397.06;;;20.37;37.66
46710;BME280;32442;51.514;-0.178;2023-02-10T03:22:45;103387.19;;;20.35;37.69
46710;BME280;32442;51.514;-0.178;2023-02-10T03:25:12;103389.38;;;20.33;37.61
46710;BME280;32442;51.514;-0.178;2023-02-10T03:27:39;103393.56;;;20.30;37.72
46710;BME280;32442;51.514;-0.178;2023-02-10T03:30:06;103383.84;;;20.26;37.75
46710;BME280;32442;51.514;-0.178;2023-02-10T03:32:33;103382.75;;;20.27;37.66
46710;BME280;32442;51.514;-0.178;2023-02-10T03:35:00;103379.97;;;20.27;37.99
46710;BME280;32442;51.514;-0.178;2023-02-10T03:37:27;103379.59;;;20.24;37.95
46710;BME280;32442;51.514;-0.178;2023-02-10T03:39:53;103370.22;;;20.18;37.94
46710;BME280;32442;51.514;-0.178;2023-02-10T03:42:20;103376.91;;;20.17;37.85
46710;BME280;32442;51.514;-0.178;2023-02-10T03:44:48;103381.94;;;20.15;37.96
46710;BME280;32442;51.514;-0.178;2023-02-10T03:47:15;103392.81;;;20.12;37.97
46710;BME280;32442;51.514;-0.178;2023-02-10T03:49:42;103388.31;;;20.11;38.32
46710;BME280;32442;51.514;-0.178;2023-02-10T03:52:09;103392.19;;;20.10;38.11
46710;BME280;32442;51.514;-0.178;2023-02-10T03:54:36;103383.41;;;20.06;38.16
46710;BME280;32442;51.514;-0.178;2023-02-10T03:57:03;103382.56;;;20.06;37.86
46710;BME280;32442;51.514;-0.178;2023-02-10T03:59:32;103376.34;;;20.04;38.03
46710;BME280;32442;51.514;-0.178;2023-02-10T04:01:59;103372.06;;;20.01;37.91
46710;BME280;32442;51.514;-0.178;2023-02-10T04:04:26;103366.97;;;19.98;37.99
46710;BME280;32442;51.514;-0.178;2023-02-10T04:06:53;103359.88;;;19.95;38.33
46710;BME280;32442;51.514;-0.178;2023-02-10T04:09:20;103355.63;;;19.93;38.04
46710;BME280;32442;51.514;-0.178;2023-02-10T04:11:49;103349.41;;;19.91;38.51
46710;BME280;32442;51.514;-0.178;2023-02-10T04:14:16;103372.94;;;19.90;38.41
46710;BME280;32442;51.514;-0.178;2023-02-10T04:16:43;103370.38;;;19.88;38.41
46710;BME280;32442;51.514;-0.178;2023-02-10T04:19:10;103384.66;;;19.87;38.15
46710;BME280;32442;51.514;-0.178;2023-02-10T04:21:37;103389.66;;;19.85;38.04
46710;BME280;32442;51.514;-0.178;2023-02-10T04:24:04;103380.88;;;19.81;38.45
46710;BME280;32442;51.514;-0.178;2023-02-10T04:26:31;103376.84;;;19.77;38.54
46710;BME280;32442;51.514;-0.178;2023-02-10T04:28:58;103376.00;;;19.77;38.44
46710;BME280;32442;51.514;-0.178;2023-02-10T04:31:25;103374.78;;;19.73;38.47
46710;BME280;32442;51.514;-0.178;2023-02-10T04:33:52;103370.25;;;19.72;38.43
46710;BME280;32442;51.514;-0.178;2023-02-10T04:36:19;103363.19;;;19.69;38.41
46710;BME280;32442;51.514;-0.178;2023-02-10T04:38:46;103377.84;;;19.71;38.70
46710;BME280;32442;51.514;-0.178;2023-02-10T04:41:13;103388.19;;;19.71;38.80
46710;BME280;32442;51.514;-0.178;2023-02-10T04:43:39;103395.41;;;19.67;38.90
46710;BME280;32442;51.514;-0.178;2023-02-10T04:46:07;103401.47;;;19.64;38.96
46710;BME280;32442;51.514;-0.178;2023-02-10T04:48:34;103374.78;;;19.61;38.99
46710;BME280;32442;51.514;-0.178;2023-02-10T04:53:33;103376.97;;;19.59;39.07
46710;BME280;32442;51.514;-0.178;2023-02-10T04:56:00;103371.84;;;19.56;38.62
46710;BME280;32442;51.514;-0.178;2023-02-10T04:58:27;103371.84;;;19.56;38.62
46710;BME280;32442;51.514;-0.178;2023-02-10T05:00:54;103367.81;;;19.52;38.79
46710;BME280;32442;51.514;-0.178;2023-02-10T05:03:22;103366.59;;;19.48;39.17
46710;BME280;32442;51.514;-0.178;2023-02-10T05:05:49;103365.50;;;19.49;38.97
46710;BME280;32442;51.514;-0.178;2023-02-10T05:08:18;103373.91;;;19.49;38.93
46710;BME280;32442;51.514;-0.178;2023-02-10T05:10:49;103378.06;;;19.46;38.86
46710;BME280;32442;51.514;-0.178;2023-02-10T05:13:16;103379.78;;;19.47;39.19
46710;BME280;32442;51.514;-0.178;2023-02-10T05:15:43;103377.44;;;19.44;39.18
46710;BME280;32442;51.514;-0.178;2023-02-10T05:18:11;103373.63;;;19.39;39.13
46710;BME280;32442;51.514;-0.178;2023-02-10T05:20:37;103380.69;;;19.41;39.22
46710;BME280;32442;51.514;-0.178;2023-02-10T05:23:04;103375.81;;;19.37;39.38
46710;BME280;32442;51.514;-0.178;2023-02-10T05:25:31;103381.56;;;19.42;39.33
46710;BME280;32442;51.514;-0.178;2023-02-10T05:27:58;103371.81;;;19.44;39.98
46710;BME280;32442;51.514;-0.178;2023-02-10T05:30:25;103377.97;;;19.53;39.48
46710;BME280;32442;51.514;-0.178;2023-02-10T05:32:52;103380.84;;;19.58;39.53
46710;BME280;32442;51.514;-0.178;2023-02-10T05:35:19;103382.09;;;19.62;39.94
46710;BME280;32442;51.514;-0.178;2023-02-10T05:37:46;103380.53;;;19.66;39.86
46710;BME280;32442;51.514;-0.178;2023-02-10T05:40:13;103383.69;;;19.70;39.46
46710;BME280;32442;51.514;-0.178;2023-02-10T05:42:40;103381.25;;;19.73;40.02
46710;BME280;32442;51.514;-0.178;2023-02-10T05:45:07;103380.50;;;19.78;40.08
46710;BME280;32442;51.514;-0.178;2023-02-10T05:47:34;103376.38;;;19.80;39.78
46710;BME280;32442;51.514;-0.178;2023-02-10T05:50:01;103383.78;;;19.86;39.89
46710;BME280;32442;51.514;-0.178;2023-02-10T05:52:28;103385.88;;;19.91;39.85
46710;BME280;32442;51.514;-0.178;2023-02-10T05:54:55;103384.28;;;19.95;39.60
46710;BME280;32442;51.514;-0.178;2023-02-10T05:57:22;103391.72;;;20.01;40.15
46710;BME280;32442;51.514;-0.178;2023-02-10T05:59:48;103388.19;;;20.06;39.80
46710;BME280;32442;51.514;-0.178;2023-02-10T06:02:15;103389.38;;;20.10;39.31
46710;BME280;32442;51.514;-0.178;2023-02-10T06:04:42;103397.69;;;20.16;39.42
46710;BME280;32442;51.514;-0.178;2023-02-10T06:07:09;103380.13;;;20.21;39.34
46710;BME280;32442;51.514;-0.178;2023-02-10T06:09:36;103383.84;;;20.26;39.40
46710;BME280;32442;51.514;-0.178;2023-02-10T06:12:06;103382.06;;;20.32;38.94
46710;BME280;32442;51.514;-0.178;2023-02-10T06:14:33;103379.38;;;20.37;39.23
46710;BME280;32442;51.514;-0.178;2023-02-10T06:17:00;103379.47;;;20.42;39.35
46710;BME280;32442;51.514;-0.178;2023-02-10T06:19:27;103383.25;;;20.48;39.45
46710;BME280;32442;51.514;-0.178;2023-02-10T06:21:54;103386.16;;;20.53;39.29
46710;BME280;32442;51.514;-0.178;2023-02-10T06:24:21;103398.34;;;20.58;39.42
46710;BME280;32442;51.514;-0.178;2023-02-10T06:26:48;103399.56;;;20.62;38.79
46710;BME280;32442;51.514;-0.178;2023-02-10T06:29:15;103393.22;;;20.67;38.86
46710;BME280;32442;51.514;-0.178;2023-02-10T06:31:42;103395.00;;;20.73;39.07
46710;BME280;32442;51.514;-0.178;2023-02-10T06:34:09;103402.66;;;20.77;39.14
46710;BME280;32442;51.514;-0.178;2023-02-10T06:36:36;103408.06;;;20.79;38.44
46710;BME280;32442;51.514;-0.178;2023-02-10T06:39:03;103412.31;;;20.81;38.09
46710;BME280;32442;51.514;-0.178;2023-02-10T06:41:30;103409.00;;;20.84;38.14
46710;BME280;32442;51.514;-0.178;2023-02-10T06:43:57;103405.69;;;20.88;38.16
46710;BME280;32442;51.514;-0.178;2023-02-10T06:46:24;103409.94;;;20.90;37.94
46710;BME280;32442;51.514;-0.178;2023-02-10T06:48:51;103404.94;;;20.92;37.71
46710;BME280;32442;51.514;-0.178;2023-02-10T06:51:18;103399.91;;;20.94;37.96
46710;BME280;32442;51.514;-0.178;2023-02-10T06:53:45;103388.66;;;20.94;37.39
46710;BME280;32442;51.514;-0.178;2023-02-10T06:56:12;103398.81;;;20.95;37.86
46710;BME280;32442;51.514;-0.178;2023-02-10T06:58:39;103392.69;;;20.98;37.70
46710;BME280;32442;51.514;-0.178;2023-02-10T07:01:07;103399.16;;;20.99;37.82
46710;BME280;32442;51.514;-0.178;2023-02-10T07:03:34;103395.25;;;21.00;37.59
46710;BME280;32442;51.514;-0.178;2023-02-10T07:06:01;103412.97;;;21.00;37.56
46710;BME280;32442;51.514;-0.178;2023-02-10T07:08:28;103418.59;;;21.00;37.14
46710;BME280;32442;51.514;-0.178;2023-02-10T07:10:55;103422.25;;;21.01;37.30
46710;BME280;32442;51.514;-0.178;2023-02-10T07:13:22;103420.28;;;21.01;37.11
46710;BME280;32442;51.514;-0.178;2023-02-10T07:15:49;103423.97;;;21.02;37.20
46710;BME280;32442;51.514;-0.178;2023-02-10T07:18:17;103425.56;;;20.98;37.47
46710;BME280;32442;51.514;-0.178;2023-02-10T07:20:44;103429.59;;;21.02;38.04
46710;BME280;32442;51.514;-0.178;2023-02-10T07:23:11;103427.88;;;21.01;37.63
46710;BME280;32442;51.514;-0.178;2023-02-10T07:25:39;103420.06;;;21.03;37.11
46710;BME280;32442;51.514;-0.178;2023-02-10T07:28:06;103413.56;;;21.02;37.36
46710;BME280;32442;51.514;-0.178;2023-02-10T07:30:34;103419.78;;;21.04;37.30
46710;BME280;32442;51.514;-0.178;2023-02-10T07:33:01;103426.00;;;21.06;36.87
46710;BME280;32442;51.514;-0.178;2023-02-10T07:35:29;103422.94;;;21.08;37.18
46710;BME280;32442;51.514;-0.178;2023-02-10T07:37:55;103420.13;;;21.08;36.90
46710;BME280;32442;51.514;-0.178;2023-02-10T07:40:22;103419.63;;;21.11;36.87
46710;BME280;32442;51.514;-0.178;2023-02-10T07:42:49;103414.38;;;21.14;36.62
46710;BME280;32442;51.514;-0.178;2023-02-10T07:45:16;103423.44;;;21.16;36.97
46710;BME280;32442;51.514;-0.178;2023-02-10T07:47:43;103430.50;;;21.19;36.62
46710;BME280;32442;51.514;-0.178;2023-02-10T07:50:10;103425.72;;;21.19;36.33
46710;BME280;32442;51.514;-0.178;2023-02-10T07:52:37;103423.50;;;21.21;36.57
46710;BME280;32442;51.514;-0.178;2023-02-10T07:55:05;103422.41;;;21.22;36.08
46710;BME280;32442;51.514;-0.178;2023-02-10T07:57:32;103421.06;;;21.25;36.42
46710;BME280;32442;51.514;-0.178;2023-02-10T07:59:59;103418.50;;;21.23;36.41
46710;BME280;32442;51.514;-0.178;2023-02-10T08:02:25;103425.72;;;20.91;32.72
46710;BME280;32442;51.514;-0.178;2023-02-10T08:04:52;103425.44;;;20.64;33.30
46710;BME280;32442;51.514;-0.178;2023-02-10T08:07:21;103432.13;;;20.75;33.52
46710;BME280;32442;51.514;-0.178;2023-02-10T08:09:50;103437.47;;;20.76;33.93
46710;BME280;32442;51.514;-0.178;2023-02-10T08:12:17;103437.25;;;20.78;33.95
46710;BME280;32442;51.514;-0.178;2023-02-10T08:14:45;103432.72;;;20.77;34.10
46710;BME280;32442;51.514;-0.178;2023-02-10T08:17:12;103429.06;;;20.76;33.87
46710;BME280;32442;51.514;-0.178;2023-02-10T08:19:39;103428.47;;;20.74;33.87
46710;BME280;32442;51.514;-0.178;2023-02-10T08:22:06;103424.81;;;20.74;34.17
46710;BME280;32442;51.514;-0.178;2023-02-10T08:24:33;103435.41;;;20.72;34.07
46710;BME280;32442;51.514;-0.178;2023-02-10T08:27:00;103429.22;;;20.70;34.28
46710;BME280;32442;51.514;-0.178;2023-02-10T08:29:27;103426.66;;;20.68;33.96
46710;BME280;32442;51.514;-0.178;2023-02-10T08:31:54;103437.88;;;20.68;33.93
46710;BME280;32442;51.514;-0.178;2023-02-10T08:34:21;103433.75;;;20.71;34.37
46710;BME280;32442;51.514;-0.178;2023-02-10T08:36:48;103437.66;;;20.70;34.22
46710;BME280;32442;51.514;-0.178;2023-02-10T08:39:14;103434.09;;;20.74;34.27
46710;BME280;32442;51.514;-0.178;2023-02-10T08:41:41;103441.41;;;20.75;34.34
46710;BME280;32442;51.514;-0.178;2023-02-10T08:44:09;103435.81;;;20.75;34.46
46710;BME280;32442;51.514;-0.178;2023-02-10T08:46:37;103438.09;;;20.78;34.28
46710;BME280;32442;51.514;-0.178;2023-02-10T08:49:05;103430.78;;;20.77;34.46
46710;BME280;32442;51.514;-0.178;2023-02-10T08:51:32;103442.63;;;20.79;34.50
46710;BME280;32442;51.514;-0.178;2023-02-10T08:53:59;103441.03;;;20.83;34.24
46710;BME280;32442;51.514;-0.178;2023-02-10T08:56:27;103444.94;;;20.82;34.30
46710;BME280;32442;51.514;-0.178;2023-02-10T08:58:53;103456.16;;;20.82;34.23
46710;BME280;32442;51.514;-0.178;2023-02-10T09:01:22;103451.16;;;20.84;33.85
46710;BME280;32442;51.514;-0.178;2023-02-10T09:03:52;103464.34;;;20.84;34.34
46710;BME280;32442;51.514;-0.178;2023-02-10T09:06:20;103461.53;;;20.84;33.80
46710;BME280;32442;51.514;-0.178;2023-02-10T09:08:48;103458.75;;;20.84;34.02
46710;BME280;32442;51.514;-0.178;2023-02-10T09:11:16;103453.13;;;20.84;33.89
46710;BME280;32442;51.514;-0.178;2023-02-10T09:13:43;103457.03;;;20.83;34.14
46710;BME280;32442;51.514;-0.178;2023-02-10T09:16:10;103460.94;;;20.82;34.14
46710;BME280;32442;51.514;-0.178;2023-02-10T09:18:37;103463.75;;;20.82;34.07
46710;BME280;32442;51.514;-0.178;2023-02-10T09:21:04;103462.66;;;20.83;33.88
46710;BME280;32442;51.514;-0.178;2023-02-10T09:23:31;103460.94;;;20.82;34.05
46710;BME280;32442;51.514;-0.178;2023-02-10T09:25:59;103464.94;;;20.86;33.68
46710;BME280;32442;51.514;-0.178;2023-02-10T09:28:26;103463.59;;;20.89;33.61
46710;BME280;32442;51.514;-0.178;2023-02-10T09:30:53;103468.97;;;20.90;33.50
46710;BME280;32442;51.514;-0.178;2023-02-10T09:33:21;103472.38;;;20.92;33.64
46710;BME280;32442;51.514;-0.178;2023-02-10T09:35:48;103467.97;;;20.96;33.40
46710;BME280;32442;51.514;-0.178;2023-02-10T09:38:15;103471.41;;;20.98;33.38
46710;BME280;32442;51.514;-0.178;2023-02-10T09:45:42;103467.56;;;21.04;33.32
46710;BME280;32442;51.514;-0.178;2023-02-10T09:53:13;103451.31;;;21.06;33.17
46710;BME280;32442;51.514;-0.178;2023-02-10T10:00:45;103453.50;;;21.04;32.80
46710;BME280;32442;51.514;-0.178;2023-02-10T10:03:14;103460.22;;;21.03;33.37
46710;BME280;32442;51.514;-0.178;2023-02-10T10:10:44;103458.28;;;21.04;32.70
46710;BME280;32442;51.514;-0.178;2023-02-10T10:13:14;103473.47;;;21.03;33.22
46710;BME280;32442;51.514;-0.178;2023-02-10T10:15:43;103479.09;;;21.03;32.81
46710;BME280;32442;51.514;-0.178;2023-02-10T10:18:16;103468.94;;;21.02;32.88
46710;BME280;32442;51.514;-0.178;2023-02-10T10:28:18;103478.13;;;20.97;32.45
46710;BME280;32442;51.514;-0.178;2023-02-10T10:30:49;103478.34;;;20.96;32.48
46710;BME280;32442;51.514;-0.178;2023-02-10T10:35:47;103482.25;;;20.95;32.83
46710;BME280;32442;51.514;-0.178;2023-02-10T10:38:20;103475.19;;;20.92;32.62
46710;BME280;32442;51.514;-0.178;2023-02-10T10:40:50;103476.28;;;20.91;32.80
46710;BME280;32442;51.514;-0.178;2023-02-10T10:45:49;103472.91;;;20.89;32.91
46710;BME280;32442;51.514;-0.178;2023-02-10T10:48:19;103472.28;;;20.87;32.95
46710;BME280;32442;51.514;-0.178;2023-02-10T10:50:53;103474.00;;;20.88;32.94
46710;BME280;32442;51.514;-0.178;2023-02-10T10:53:27;103474.22;;;20.86;32.82
46710;BME280;32442;51.514;-0.178;2023-02-10T10:56:01;103477.28;;;20.85;32.59
46710;BME280;32442;51.514;-0.178;2023-02-10T10:58:30;103477.78;;;20.82;32.70
46710;BME280;32442;51.514;-0.178;2023-02-10T11:00:59;103476.69;;;20.83;32.70
46710;BME280;32442;51.514;-0.178;2023-02-10T11:03:26;103467.41;;;20.82;33.04
46710;BME280;32442;51.514;-0.178;2023-02-10T11:05:57;103466.91;;;20.85;32.69
46710;BME280;32442;51.514;-0.178;2023-02-10T11:08:26;103469.22;;;20.89;32.86
46710;BME280;32442;51.514;-0.178;2023-02-10T11:10:54;103471.53;;;20.92;32.86
46710;BME280;32442;51.514;-0.178;2023-02-10T11:13:24;103473.59;;;20.96;32.76
46710;BME280;32442;51.514;-0.178;2023-02-10T11:18:26;103463.56;;;21.00;32.65
46710;BME280;32442;51.514;-0.178;2023-02-10T11:23:23;103454.59;;;21.03;32.67
46710;BME280;32442;51.514;-0.178;2023-02-10T11:28:24;103447.66;;;21.06;32.65
46710;BME280;32442;51.514;-0.178;2023-02-10T11:33:23;103441.50;;;21.09;32.55
46710;BME280;32442;51.514;-0.178;2023-02-10T11:35:52;103430.28;;;21.09;32.24
46710;BME280;32442;51.514;-0.178;2023-02-10T11:38:20;103427.47;;;21.09;31.95
46710;BME280;32442;51.514;-0.178;2023-02-10T11:40:50;103426.34;;;21.10;32.18
46710;BME280;32442;51.514;-0.178;2023-02-10T11:43:18;103423.53;;;21.10;31.83
46710;BME280;32442;51.514;-0.178;2023-02-10T11:48:17;103410.59;;;21.09;32.02
46710;BME280;32442;51.514;-0.178;2023-02-10T11:50:45;103408.88;;;21.08;32.11
46710;BME280;32442;51.514;-0.178;2023-02-10T12:03:26;103402.44;;;21.07;32.15
46710;BME280;32442;51.514;-0.178;2023-02-10T12:08:29;103397.38;;;21.09;32.34
46710;BME280;32442;51.514;-0.178;2023-02-10T12:11:02;103396.53;;;21.09;31.54
46710;BME280;32442;51.514;-0.178;2023-02-10T12:25:57;103391.31;;;21.01;32.04
46710;BME280;32442;51.514;-0.178;2023-02-10T12:56:07;103360.88;;;20.81;32.84
46710;BME280;32442;51.514;-0.178;2023-02-10T12:58:37;103350.47;;;20.81;32.69
46710;BME280;32442;51.514;-0.178;2023-02-10T13:03:37;103347.22;;;20.73;32.64
46710;BME280;32442;51.514;-0.178;2023-02-10T13:08:36;103341.16;;;20.64;32.86
46710;BME280;32442;51.514;-0.178;2023-02-10T13:11:07;103338.88;;;20.61;32.87
46710;BME280;32442;51.514;-0.178;2023-02-10T13:13:36;103336.91;;;20.62;33.09
46710;BME280;32442;51.514;-0.178;2023-02-10T13:16:08;103320.53;;;20.59;32.87
46710;BME280;32442;51.514;-0.178;2023-02-10T13:21:09;103319.09;;;20.56;33.15
46710;BME280;32442;51.514;-0.178;2023-02-10T13:31:09;103336.84;;;20.45;33.41
46710;BME280;32442;51.514;-0.178;2023-02-10T13:36:14;103313.34;;;20.34;33.06
46710;BME280;32442;51.514;-0.178;2023-02-10T13:38:42;103321.16;;;20.32;33.25
46710;BME280;32442;51.514;-0.178;2023-02-10T13:41:22;103313.19;;;20.29;33.15
46710;BME280;32442;51.514;-0.178;2023-02-10T13:43:54;103316.75;;;20.25;33.68
46710;BME280;32442;51.514;-0.178;2023-02-10T13:46:25;103309.66;;;20.22;33.24
46710;BME280;32442;51.514;-0.178;2023-02-10T13:48:55;103306.84;;;20.22;33.45
46710;BME280;32442;51.514;-0.178;2023-02-10T13:53:53;103305.66;;;20.18;33.50
46710;BME280;32442;51.514;-0.178;2023-02-10T14:03:54;103310.81;;;20.10;33.38
46710;BME280;32442;51.514;-0.178;2023-02-10T14:06:30;103302.91;;;20.07;33.78
46710;BME280;32442;51.514;-0.178;2023-02-10T14:18:57;103298.66;;;19.92;33.93
46710;BME280;32442;51.514;-0.178;2023-02-10T14:21:25;103298.88;;;19.91;34.02
46710;BME280;32442;51.514;-0.178;2023-02-10T14:23:53;103299.50;;;19.93;34.14
46710;BME280;32442;51.514;-0.178;2023-02-10T14:26:22;103302.03;;;19.94;33.73
46710;BME280;32442;51.514;-0.178;2023-02-10T14:28:53;103296.97;;;19.80;33.83
46710;BME280;32442;51.514;-0.178;2023-02-10T14:33:53;103299.78;;;19.80;34.01
46710;BME280;32442;51.514;-0.178;2023-02-10T14:36:20;103304.78;;;19.78;34.41
46710;BME280;32442;51.514;-0.178;2023-02-10T14:38:49;103314.53;;;19.75;34.44
46710;BME280;32442;51.514;-0.178;2023-02-10T14:41:16;103308.53;;;19.72;34.32
46710;BME280;32442;51.514;-0.178;2023-02-10T14:43:46;103310.75;;;19.70;34.60
46710;BME280;32442;51.514;-0.178;2023-02-10T14:46:18;103308.19;;;19.68;34.56
46710;BME280;32442;51.514;-0.178;2023-02-10T14:48:46;103305.66;;;19.67;34.50
46710;BME280;32442;51.514;-0.178;2023-02-10T14:53:43;103310.63;;;19.65;34.74
46710;BME280;32442;51.514;-0.178;2023-02-10T14:56:14;103312.47;;;19.59;34.62
46710;BME280;32442;51.514;-0.178;2023-02-10T14:58:43;103316.63;;;19.57;34.99
46710;BME280;32442;51.514;-0.178;2023-02-10T15:03:39;103317.94;;;19.54;35.16
46710;BME280;32442;51.514;-0.178;2023-02-10T15:06:07;103330.75;;;19.50;35.17
46710;BME280;32442;51.514;-0.178;2023-02-10T15:11:05;103328.81;;;19.50;35.45
46710;BME280;32442;51.514;-0.178;2023-02-10T15:13:36;103334.06;;;19.47;35.43
46710;BME280;32442;51.514;-0.178;2023-02-10T15:16:06;103339.88;;;19.45;35.03
46710;BME280;32442;51.514;-0.178;2023-02-10T15:18:35;103332.81;;;19.43;35.19
46710;BME280;32442;51.514;-0.178;2023-02-10T15:21:04;103334.97;;;19.41;35.57
46710;BME280;32442;51.514;-0.178;2023-02-10T15:23:32;103334.97;;;19.41;35.28
46710;BME280;32442;51.514;-0.178;2023-02-10T15:28:27;103329.00;;;19.37;35.48
46710;BME280;32442;51.514;-0.178;2023-02-10T15:30:56;103332.19;;;19.41;35.29
46710;BME280;32442;51.514;-0.178;2023-02-10T15:33:24;103330.09;;;19.36;35.57
46710;BME280;32442;51.514;-0.178;2023-02-10T15:38:24;103340.72;;;19.34;35.43
46710;BME280;32442;51.514;-0.178;2023-02-10T15:40:53;103337.53;;;19.31;35.40
46710;BME280;32442;51.514;-0.178;2023-02-10T15:45:51;103341.69;;;19.28;35.59